createdAt,value
2023-02-15T00:00:40.658Z,7.15
2023-02-15T00:03:08.611Z,7.00
2023-02-15T00:05:36.500Z,6.63
2023-02-15T00:08:04.357Z,7.07
2023-02-15T00:10:32.231Z,6.68
2023-02-15T00:13:02.074Z,6.72
2023-02-15T00:15:29.951Z,6.97
2023-02-15T00:17:59.045Z,6.95
2023-02-15T00:20:26.884Z,6.20
2023-02-15T00:22:54.784Z,6.82
2023-02-15T00:25:22.680Z,7.20
2023-02-15T00:27:50.523Z,6.72
2023-02-15T00:30:20.146Z,6.65
2023-02-15T00:32:49.687Z,6.90
2023-02-15T00:35:17.905Z,6.50
2023-02-15T00:37:45.814Z,7.05
2023-02-15T00:40:14.326Z,6.60
2023-02-15T00:42:42.222Z,6.80
2023-02-15T00:45:11.048Z,6.38
2023-02-15T00:47:40.355Z,6.43
2023-02-15T00:50:08.802Z,6.28
2023-02-15T00:52:36.676Z,6.47
2023-02-15T00:55:04.933Z,6.43
2023-02-15T00:57:32.931Z,6.65
2023-02-15T01:00:00.995Z,6.43
2023-02-15T01:02:29.279Z,6.25
2023-02-15T01:05:01.500Z,6.30
2023-02-15T01:07:29.523Z,6.50
2023-02-15T01:09:57.373Z,6.15
2023-02-15T01:12:25.331Z,6.20
2023-02-15T01:14:53.191Z,6.10
2023-02-15T01:17:21.158Z,5.93
2023-02-15T01:19:49.039Z,6.20
2023-02-15T01:22:18.251Z,6.40
2023-02-15T01:24:46.335Z,5.90
2023-02-15T01:27:14.230Z,6.10
2023-02-15T01:29:42.098Z,6.18
2023-02-15T01:32:10.015Z,6.45
2023-02-15T01:34:37.985Z,6.13
2023-02-15T01:37:12.013Z,6.68
2023-02-15T01:39:41.326Z,6.10
2023-02-15T01:42:11.493Z,6.00
2023-02-15T01:44:50.670Z,5.97
2023-02-15T01:47:20.110Z,5.80
2023-02-15T01:49:48.213Z,6.13
2023-02-15T01:52:18.083Z,6.22
2023-02-15T01:54:47.333Z,6.05
2023-02-15T01:57:17.629Z,6.13
2023-02-15T01:59:47.122Z,5.93
2023-02-15T02:02:15.724Z,6.20
2023-02-15T02:04:46.133Z,6.03
2023-02-15T02:07:14.669Z,6.30
2023-02-15T02:09:42.532Z,6.18
2023-02-15T02:12:11.734Z,6.00
2023-02-15T02:14:41.180Z,6.10
2023-02-15T02:17:11.750Z,6.03
2023-02-15T02:20:11.492Z,5.47
2023-02-15T02:22:51.130Z,5.53
2023-02-15T02:25:49.130Z,6.00
2023-02-15T02:28:35.156Z,5.85
2023-02-15T02:31:23.569Z,5.25
2023-02-15T02:33:59.638Z,5.70
2023-02-15T02:36:33.320Z,5.45
2023-02-15T02:39:10.035Z,5.50
2023-02-15T02:41:41.480Z,5.40
2023-02-15T02:44:12.608Z,5.88
2023-02-15T02:46:46.367Z,5.65
2023-02-15T02:49:15.579Z,5.93
2023-02-15T02:51:43.656Z,6.05
2023-02-15T02:54:11.530Z,5.40
2023-02-15T02:56:43.178Z,5.60
2023-02-15T02:59:12.884Z,5.60
2023-02-15T03:01:42.392Z,5.70
2023-02-15T03:04:11.512Z,5.60
2023-02-15T03:06:42.996Z,5.80
2023-02-15T03:09:15.341Z,5.55
2023-02-15T03:11:45.254Z,5.80
2023-02-15T03:14:14.181Z,5.38
2023-02-15T03:16:42.332Z,5.68
2023-02-15T03:19:14.727Z,5.85
2023-02-15T03:21:50.445Z,5.78
2023-02-15T03:24:19.762Z,5.30
2023-02-15T03:26:49.681Z,5.60
2023-02-15T03:29:17.988Z,5.85
2023-02-15T03:31:47.679Z,5.60
2023-02-15T03:34:16.219Z,5.50
2023-02-15T03:36:48.238Z,5.72
2023-02-15T03:39:20.702Z,5.82
2023-02-15T03:41:51.999Z,5.57
2023-02-15T03:44:22.296Z,5.30
2023-02-15T03:46:53.770Z,6.00
2023-02-15T03:49:23.932Z,6.15
2023-02-15T03:51:52.699Z,5.85
2023-02-15T03:54:37.927Z,5.55
2023-02-15T03:57:23.305Z,5.60
2023-02-15T04:00:08.630Z,5.55
2023-02-15T04:02:41.996Z,5.38
2023-02-15T04:05:09.923Z,5.25
2023-02-15T04:07:39.331Z,5.32
2023-02-15T04:10:26.106Z,5.30
2023-02-15T04:12:54.002Z,5.88
2023-02-15T04:15:39.304Z,5.47
2023-02-15T04:18:07.387Z,5.32
2023-02-15T04:20:52.881Z,5.43
2023-02-15T04:23:39.874Z,5.10
2023-02-15T04:26:07.726Z,5.50
2023-02-15T04:28:35.790Z,5.50
2023-02-15T04:31:03.719Z,5.20
2023-02-15T04:33:31.610Z,5.30
2023-02-15T04:35:59.670Z,5.40
2023-02-15T04:38:29.010Z,5.55
2023-02-15T04:40:56.863Z,5.20
2023-02-15T04:43:24.720Z,5.35
2023-02-15T04:45:52.821Z,5.35
2023-02-15T04:48:20.681Z,5.45
2023-02-15T04:50:49.054Z,5.30
2023-02-15T04:53:18.339Z,5.20
2023-02-15T04:55:47.573Z,5.22
2023-02-15T04:58:15.526Z,5.10
2023-02-15T05:00:43.465Z,5.35
2023-02-15T05:03:11.345Z,5.18
2023-02-15T05:05:39.220Z,5.40
2023-02-15T05:08:07.101Z,5.53
2023-02-15T05:10:34.928Z,5.15
2023-02-15T05:13:04.146Z,5.32
2023-02-15T05:15:32.028Z,5.22
2023-02-15T05:17:59.896Z,4.97
2023-02-15T05:20:28.077Z,5.22
2023-02-15T05:22:56.091Z,5.38
2023-02-15T05:25:41.467Z,5.50
2023-02-15T05:28:23.953Z,5.32
2023-02-15T05:30:53.430Z,5.20
2023-02-15T05:33:22.141Z,5.30
2023-02-15T05:35:49.996Z,5.35
2023-02-15T05:38:17.816Z,4.95
2023-02-15T05:40:45.709Z,5.22
2023-02-15T05:43:15.071Z,5.18
2023-02-15T05:45:46.121Z,5.68
2023-02-15T05:48:14.014Z,5.10
2023-02-15T05:50:41.940Z,5.38
2023-02-15T05:53:09.804Z,5.25
2023-02-15T05:55:39.491Z,5.10
2023-02-15T05:58:07.372Z,5.30
2023-02-15T06:00:38.137Z,5.43
2023-02-15T06:03:06.182Z,5.43
2023-02-15T06:05:34.171Z,4.93
2023-02-15T06:08:02.084Z,4.97
2023-02-15T06:10:30.031Z,5.22
2023-02-15T06:12:57.961Z,5.65
2023-02-15T06:15:25.938Z,4.93
2023-02-15T06:17:55.166Z,5.13
2023-02-15T06:20:23.152Z,5.00
2023-02-15T06:22:51.009Z,5.70
2023-02-15T06:25:19.640Z,5.45
2023-02-15T06:27:47.472Z,5.10
2023-02-15T06:30:16.040Z,5.63
2023-02-15T06:32:43.973Z,5.40
2023-02-15T06:35:13.366Z,5.20
2023-02-15T06:37:41.449Z,5.22
2023-02-15T06:40:10.472Z,5.25
2023-02-15T06:42:38.316Z,5.57
2023-02-15T06:45:07.671Z,5.05
2023-02-15T06:47:36.335Z,5.28
2023-02-15T06:50:04.254Z,5.30
2023-02-15T06:52:33.489Z,5.70
2023-02-15T06:55:01.366Z,5.47
2023-02-15T06:57:29.280Z,5.40
2023-02-15T06:59:59.300Z,5.85
2023-02-15T07:02:27.209Z,5.10
2023-02-15T07:04:55.449Z,5.30
2023-02-15T07:07:23.332Z,5.18
2023-02-15T07:09:52.527Z,5.00
2023-02-15T07:12:38.100Z,5.50
2023-02-15T07:15:07.087Z,5.40
2023-02-15T07:17:36.232Z,5.32
2023-02-15T07:20:05.196Z,5.40
2023-02-15T07:22:34.960Z,5.38
2023-02-15T07:25:04.477Z,5.32
2023-02-15T07:27:32.796Z,5.78
2023-02-15T07:30:00.739Z,5.88
2023-02-15T07:32:30.367Z,5.70
2023-02-15T07:34:58.458Z,5.60
2023-02-15T07:37:26.636Z,5.68
2023-02-15T07:39:54.528Z,5.30
2023-02-15T07:42:23.753Z,5.60
2023-02-15T07:44:53.574Z,4.90
2023-02-15T07:47:21.446Z,5.47
2023-02-15T07:49:50.340Z,5.72
2023-02-15T07:52:18.346Z,5.95
2023-02-15T07:54:46.214Z,5.43
2023-02-15T07:57:14.152Z,6.47
2023-02-15T07:59:43.373Z,6.65
2023-02-15T08:02:11.553Z,6.30
2023-02-15T08:04:40.318Z,6.40
2023-02-15T08:07:08.894Z,6.18
2023-02-15T08:09:36.755Z,5.93
2023-02-15T08:12:05.194Z,6.72
2023-02-15T08:14:33.712Z,6.85
2023-02-15T08:17:03.687Z,7.05
2023-02-15T08:19:32.669Z,6.95
2023-02-15T08:22:01.634Z,7.22
2023-02-15T08:24:30.611Z,7.03
2023-02-15T08:26:59.305Z,7.28
2023-02-15T08:29:28.371Z,7.40
2023-02-15T08:31:59.529Z,7.70
2023-02-15T08:34:29.122Z,7.47
2023-02-15T08:36:57.050Z,6.95
2023-02-15T08:39:25.107Z,7.63
2023-02-15T08:41:53.036Z,7.25
2023-02-15T08:44:21.402Z,7.05
2023-02-15T08:46:49.960Z,7.38
2023-02-15T08:49:18.807Z,7.30
2023-02-15T08:51:48.179Z,7.00
2023-02-15T08:54:17.276Z,7.43
2023-02-15T08:56:45.597Z,7.90
2023-02-15T08:59:14.977Z,7.22
2023-02-15T09:01:42.887Z,7.35
2023-02-15T09:04:10.908Z,7.55
2023-02-15T09:06:39.271Z,7.53
2023-02-15T09:09:08.765Z,6.85
2023-02-15T09:11:37.940Z,7.03
2023-02-15T09:14:08.131Z,7.50
2023-02-15T09:16:36.878Z,7.70
2023-02-15T09:19:05.598Z,7.40
2023-02-15T09:21:34.073Z,7.43
2023-02-15T09:24:02.895Z,7.93
2023-02-15T09:26:33.037Z,8.00
2023-02-15T09:29:04.334Z,7.38
2023-02-15T09:31:33.397Z,7.70
2023-02-15T09:34:02.525Z,7.38
2023-02-15T09:36:32.165Z,7.63
2023-02-15T09:39:03.290Z,7.65
2023-02-15T09:41:59.337Z,7.85
2023-02-15T09:44:32.738Z,7.70
2023-02-15T09:47:08.938Z,7.78
2023-02-15T09:49:39.853Z,7.57
2023-02-15T09:52:18.456Z,7.38
2023-02-15T09:54:56.502Z,7.60
2023-02-15T09:57:29.143Z,7.53
2023-02-15T10:00:01.228Z,7.25
2023-02-15T10:02:37.231Z,7.88
2023-02-15T10:05:13.268Z,7.38
2023-02-15T10:08:12.529Z,8.35
2023-02-15T10:10:42.409Z,7.80
2023-02-15T10:13:19.314Z,8.10
2023-02-15T10:15:54.350Z,7.15
2023-02-15T10:18:31.221Z,7.93
2023-02-15T10:21:03.728Z,7.38
2023-02-15T10:23:40.821Z,6.75
2023-02-15T10:26:14.915Z,7.10
2023-02-15T10:28:46.955Z,7.45
2023-02-15T10:31:27.347Z,6.95
2023-02-15T10:34:09.752Z,7.47
2023-02-15T10:36:51.779Z,6.80
2023-02-15T10:39:22.544Z,7.30
2023-02-15T10:41:53.764Z,7.45
2023-02-15T10:44:30.798Z,6.82
2023-02-15T10:47:14.362Z,6.85
2023-02-15T10:50:04.001Z,6.85
2023-02-15T10:52:37.400Z,7.43
2023-02-15T10:55:09.914Z,6.78
2023-02-15T10:57:42.620Z,7.10
2023-02-15T11:00:15.128Z,6.88
2023-02-15T11:02:59.348Z,7.03
2023-02-15T11:05:32.358Z,6.85
2023-02-15T11:08:01.362Z,6.93
2023-02-15T11:10:32.219Z,6.65
2023-02-15T11:13:00.365Z,6.63
2023-02-15T11:15:32.457Z,6.70
2023-02-15T11:18:02.079Z,7.25
2023-02-15T11:20:31.500Z,6.65
2023-02-15T11:23:02.197Z,6.80
2023-02-15T11:25:32.086Z,6.63
2023-02-15T11:27:59.929Z,6.95
2023-02-15T11:30:31.218Z,6.72
2023-02-15T11:33:02.557Z,6.55
2023-02-15T11:35:31.630Z,6.95
2023-02-15T11:38:02.980Z,5.97
2023-02-15T11:40:32.564Z,6.50
2023-02-15T11:43:02.813Z,6.57
2023-02-15T11:45:32.737Z,6.57
2023-02-15T11:48:00.830Z,6.53
2023-02-15T11:50:30.322Z,6.63
2023-02-15T11:53:00.147Z,6.40
2023-02-15T11:55:29.458Z,6.43
2023-02-15T11:57:58.690Z,6.80
2023-02-15T12:00:37.037Z,6.00
2023-02-15T12:03:10.725Z,6.65
2023-02-15T12:05:39.214Z,6.20
2023-02-15T12:08:13.877Z,6.20
2023-02-15T12:10:43.727Z,6.40
2023-02-15T12:13:12.821Z,5.97
2023-02-15T12:15:43.034Z,6.28
2023-02-15T12:18:19.413Z,6.63
2023-02-15T12:20:47.469Z,6.22
2023-02-15T12:23:15.975Z,6.03
2023-02-15T12:25:44.268Z,6.25
2023-02-15T12:28:24.751Z,5.80
2023-02-15T12:30:54.094Z,6.28
2023-02-15T12:33:28.981Z,6.30
2023-02-15T12:36:01.967Z,5.65
2023-02-15T12:38:30.394Z,6.00
2023-02-15T12:41:02.918Z,6.50
2023-02-15T12:43:34.037Z,6.10
2023-02-15T12:46:24.567Z,6.20
2023-02-15T12:49:08.668Z,5.90
2023-02-15T12:51:46.745Z,5.75
2023-02-15T12:54:41.018Z,5.95
2023-02-15T12:57:17.377Z,5.72
2023-02-15T12:59:52.874Z,6.05
2023-02-15T13:02:25.662Z,5.68
2023-02-15T13:04:53.611Z,5.68
2023-02-15T13:07:21.724Z,6.13
2023-02-15T13:09:49.666Z,5.82
2023-02-15T13:12:19.961Z,5.72
2023-02-15T13:14:48.510Z,6.15
2023-02-15T13:17:16.931Z,6.07
2023-02-15T13:19:47.678Z,6.28
2023-02-15T13:22:17.003Z,5.90
2023-02-15T13:24:46.056Z,6.13
2023-02-15T13:27:16.403Z,5.97
2023-02-15T13:29:45.628Z,6.20
2023-02-15T13:32:17.387Z,5.63
2023-02-15T13:34:46.638Z,5.90
2023-02-15T13:37:17.504Z,5.75
2023-02-15T13:39:46.396Z,5.88
2023-02-15T13:42:22.051Z,6.15
2023-02-15T13:45:04.196Z,5.82
2023-02-15T13:47:34.991Z,6.13
2023-02-15T13:50:18.870Z,6.10
2023-02-15T13:52:49.689Z,6.13
2023-02-15T13:55:28.835Z,6.00
2023-02-15T13:58:30.382Z,6.25
2023-02-15T14:01:03.033Z,6.50
2023-02-15T14:03:46.345Z,6.05
2023-02-15T14:06:26.061Z,6.30
2023-02-15T14:09:04.225Z,6.60
2023-02-15T14:11:35.217Z,6.50
2023-02-15T14:14:11.858Z,6.60
2023-02-15T14:16:46.387Z,6.28
2023-02-15T14:19:22.281Z,6.53
2023-02-15T14:21:53.985Z,6.80
2023-02-15T14:24:30.525Z,6.15
2023-02-15T14:27:02.868Z,6.15
2023-02-15T14:29:46.120Z,6.80
2023-02-15T14:32:15.287Z,7.07
2023-02-15T14:34:46.477Z,6.28
2023-02-15T14:37:15.939Z,6.50
2023-02-15T14:40:03.852Z,6.15
2023-02-15T14:42:35.996Z,6.35
2023-02-15T14:45:06.197Z,6.60
2023-02-15T14:47:35.678Z,6.80
2023-02-15T14:50:37.394Z,6.75
2023-02-15T14:53:42.972Z,6.75
2023-02-15T14:56:22.129Z,6.28
2023-02-15T14:59:18.330Z,6.80
2023-02-15T15:01:59.528Z,6.88
2023-02-15T15:04:30.278Z,6.63
2023-02-15T15:07:09.966Z,6.43
2023-02-15T15:09:38.598Z,6.55
2023-02-15T15:12:33.153Z,6.32
2023-02-15T15:15:02.176Z,6.47
2023-02-15T15:17:57.912Z,6.63
2023-02-15T15:20:49.655Z,6.88
2023-02-15T15:23:41.624Z,6.72
2023-02-15T15:26:29.056Z,6.35
2023-02-15T15:29:02.479Z,6.40
2023-02-15T15:31:45.911Z,6.78
2023-02-15T15:34:48.040Z,6.40
2023-02-15T15:37:44.925Z,6.95
2023-02-15T15:40:39.531Z,6.68
2023-02-15T15:43:34.831Z,6.93
2023-02-15T15:46:21.792Z,6.90
2023-02-15T15:48:49.781Z,6.70
2023-02-15T15:51:21.904Z,7.07
2023-02-15T15:53:54.022Z,7.03
2023-02-15T15:56:22.934Z,7.00
2023-02-15T15:58:52.529Z,7.05
2023-02-15T16:01:26.359Z,7.40
2023-02-15T16:03:55.026Z,6.90
2023-02-15T16:06:36.500Z,7.65
2023-02-15T16:09:20.168Z,7.88
2023-02-15T16:11:48.929Z,7.10
2023-02-15T16:14:18.475Z,7.45
2023-02-15T16:16:53.319Z,7.07
2023-02-15T16:19:23.168Z,7.82
2023-02-15T16:21:51.480Z,7.28
2023-02-15T16:24:34.747Z,7.35
2023-02-15T16:27:23.598Z,7.80
2023-02-15T16:29:51.589Z,7.70
2023-02-15T16:32:22.162Z,7.25
2023-02-15T16:34:54.390Z,7.72
2023-02-15T16:37:24.414Z,7.57
2023-02-15T16:39:52.304Z,7.22
2023-02-15T16:42:32.989Z,7.65
2023-02-15T16:45:04.080Z,7.05
2023-02-15T16:47:33.998Z,7.13
2023-02-15T16:50:02.892Z,7.80
2023-02-15T16:52:30.787Z,6.85
2023-02-15T16:55:00.050Z,8.00
2023-02-15T16:57:29.891Z,6.90
2023-02-15T16:59:59.232Z,7.38
2023-02-15T17:02:53.202Z,7.60
2023-02-15T17:05:20.826Z,7.30
2023-02-15T17:07:53.972Z,7.10
2023-02-15T17:10:29.546Z,7.40
2023-02-15T17:12:58.872Z,6.80
2023-02-15T17:15:28.058Z,7.43
2023-02-15T17:17:58.387Z,7.85
2023-02-15T17:20:27.639Z,7.22
2023-02-15T17:22:55.617Z,7.28
2023-02-15T17:25:27.397Z,6.90
2023-02-15T17:27:55.445Z,7.35
2023-02-15T17:30:26.877Z,7.53
2023-02-15T17:32:55.604Z,7.35
2023-02-15T17:35:25.559Z,7.32
2023-02-15T17:38:02.855Z,7.30
2023-02-15T17:40:31.676Z,7.15
2023-02-15T17:42:59.565Z,7.70
2023-02-15T17:45:28.380Z,7.40
2023-02-15T17:47:59.804Z,7.20
2023-02-15T17:50:28.788Z,6.85
2023-02-15T17:52:58.298Z,7.63
2023-02-15T17:55:43.172Z,7.30
2023-02-15T17:58:12.229Z,7.50
2023-02-15T18:00:59.561Z,7.53
2023-02-15T18:03:48.025Z,7.82
2023-02-15T18:06:33.894Z,7.05
2023-02-15T18:09:20.861Z,7.38
2023-02-15T18:11:50.736Z,7.75
2023-02-15T18:14:18.744Z,7.57
2023-02-15T18:16:46.905Z,7.40
2023-02-15T18:19:17.266Z,7.25
2023-02-15T18:21:45.371Z,7.18
2023-02-15T18:24:21.438Z,7.00
2023-02-15T18:26:49.551Z,7.28
2023-02-15T18:29:17.433Z,7.18
2023-02-15T18:31:46.215Z,6.78
2023-02-15T18:34:22.300Z,7.40
2023-02-15T18:36:50.322Z,7.57
2023-02-15T18:39:26.866Z,7.28
2023-02-15T18:41:54.916Z,7.57
2023-02-15T18:44:22.886Z,7.85
2023-02-15T18:46:50.764Z,7.57
2023-02-15T18:49:18.665Z,7.55
2023-02-15T18:51:46.504Z,7.22
2023-02-15T18:54:18.917Z,7.45
2023-02-15T18:56:50.367Z,7.72
2023-02-15T18:59:18.510Z,7.55
2023-02-15T19:01:46.391Z,7.50
2023-02-15T19:04:14.273Z,7.72
2023-02-15T19:06:46.468Z,7.43
2023-02-15T19:09:16.177Z,7.40
2023-02-15T19:11:44.250Z,7.30
2023-02-15T19:14:21.430Z,7.03
2023-02-15T19:16:49.304Z,6.85
2023-02-15T19:19:17.160Z,7.78
2023-02-15T19:21:45.005Z,7.97
2023-02-15T19:24:15.452Z,7.38
2023-02-15T19:26:45.928Z,7.50
2023-02-15T19:29:16.099Z,7.30
2023-02-15T19:31:44.206Z,7.85
2023-02-15T19:34:16.775Z,7.93
2023-02-15T19:36:44.895Z,8.25
2023-02-15T19:39:22.405Z,8.02
2023-02-15T19:41:50.250Z,7.78
2023-02-15T19:44:19.440Z,7.65
2023-02-15T19:46:47.450Z,7.38
2023-02-15T19:49:15.530Z,7.53
2023-02-15T19:51:43.786Z,7.55
2023-02-15T19:54:21.201Z,7.88
2023-02-15T19:56:49.083Z,7.57
2023-02-15T19:59:23.716Z,7.32
2023-02-15T20:01:52.222Z,7.90
2023-02-15T20:04:20.475Z,7.50
2023-02-15T20:06:49.053Z,7.63
2023-02-15T20:09:21.392Z,7.78
2023-02-15T20:11:49.314Z,8.27
2023-02-15T20:14:17.159Z,7.95
2023-02-15T20:16:46.556Z,7.60
2023-02-15T20:19:14.499Z,7.70
2023-02-15T20:21:42.705Z,7.85
2023-02-15T20:24:13.856Z,7.40
2023-02-15T20:26:41.970Z,7.53
2023-02-15T20:29:12.924Z,8.05
2023-02-15T20:31:41.093Z,8.00
2023-02-15T20:34:10.441Z,7.80
2023-02-15T20:36:38.468Z,7.70
2023-02-15T20:39:12.172Z,7.70
2023-02-15T20:41:40.144Z,7.18
2023-02-15T20:44:17.823Z,8.02
2023-02-15T20:46:46.131Z,7.93
2023-02-15T20:49:16.105Z,8.18
2023-02-15T20:51:44.484Z,8.00
2023-02-15T20:54:14.641Z,8.10
2023-02-15T20:56:43.271Z,8.20
2023-02-15T20:59:22.516Z,7.90
2023-02-15T21:01:50.712Z,8.13
2023-02-15T21:04:20.801Z,7.90
2023-02-15T21:06:49.007Z,8.60
2023-02-15T21:09:17.978Z,8.13
2023-02-15T21:11:46.107Z,9.13
2023-02-15T21:14:18.069Z,9.45
2023-02-15T21:16:46.217Z,9.98
2023-02-15T21:19:15.166Z,10.10
2023-02-15T21:21:44.677Z,9.05
2023-02-15T21:24:16.609Z,9.35
2023-02-15T21:26:46.262Z,9.85
2023-02-15T21:29:18.169Z,10.50
2023-02-15T21:31:46.368Z,9.15
2023-02-15T21:34:14.547Z,9.93
2023-02-15T21:36:44.022Z,9.18
2023-02-15T21:39:15.704Z,10.43
2023-02-15T21:42:01.948Z,10.27
2023-02-15T21:44:47.420Z,9.65
2023-02-15T21:47:36.802Z,9.63
2023-02-15T21:50:25.286Z,9.57
2023-02-15T21:52:53.541Z,9.23
2023-02-15T21:55:21.502Z,10.35
2023-02-15T21:57:49.465Z,9.93
2023-02-15T22:00:18.792Z,9.70
2023-02-15T22:02:47.002Z,9.25
2023-02-15T22:05:16.246Z,9.48
2023-02-15T22:07:44.385Z,9.65
2023-02-15T22:10:13.796Z,9.55
2023-02-15T22:12:42.299Z,9.23
2023-02-15T22:15:18.418Z,9.40
2023-02-15T22:17:46.323Z,9.55
2023-02-15T22:20:15.885Z,9.75
2023-02-15T22:22:43.732Z,9.57
2023-02-15T22:25:15.254Z,9.88
2023-02-15T22:27:43.306Z,9.30
2023-02-15T22:30:23.145Z,9.05
2023-02-15T22:32:51.097Z,9.38
2023-02-15T22:35:20.173Z,9.85
2023-02-15T22:37:48.041Z,10.25
2023-02-15T22:40:17.820Z,9.40
2023-02-15T22:42:47.152Z,9.95
2023-02-15T22:45:18.059Z,9.35
2023-02-15T22:47:46.239Z,9.88
2023-02-15T22:50:18.566Z,9.57
2023-02-15T22:52:46.415Z,9.70
2023-02-15T22:55:17.228Z,9.68
2023-02-15T22:57:45.325Z,9.57
2023-02-15T23:00:17.007Z,9.75
2023-02-15T23:02:44.882Z,9.60
2023-02-15T23:05:18.334Z,9.65
2023-02-15T23:07:46.438Z,9.93
2023-02-15T23:10:21.349Z,10.00
2023-02-15T23:13:08.152Z,9.43
2023-02-15T23:15:36.246Z,9.85
2023-02-15T23:18:12.151Z,9.50
2023-02-15T23:20:39.997Z,9.90
2023-02-15T23:23:10.011Z,9.63
2023-02-15T23:25:37.909Z,9.80
2023-02-15T23:28:11.112Z,10.13
2023-02-15T23:30:38.965Z,10.13
2023-02-15T23:33:07.058Z,9.45
2023-02-15T23:35:34.944Z,9.63
2023-02-15T23:38:02.989Z,10.25
2023-02-15T23:40:48.589Z,10.00
2023-02-15T23:43:21.317Z,9.48
2023-02-15T23:45:49.296Z,10.40
2023-02-15T23:48:32.886Z,10.32
2023-02-15T23:51:01.395Z,9.93
2023-02-15T23:53:29.331Z,10.20
2023-02-15T23:55:57.806Z,10.00
2023-02-15T23:58:30.338Z,10.20
